createdAt,value
2017-07-21T00:00:14.912Z,0
2017-07-21T00:01:16.783Z,0
2017-07-21T00:02:30.940Z,0
2017-07-21T00:03:32.816Z,0
2017-07-21T00:04:34.707Z,0
2017-07-21T00:05:36.575Z,0
2017-07-21T00:06:38.386Z,0
2017-07-21T00:07:40.217Z,0
2017-07-21T00:08:42.111Z,0
2017-07-21T00:09:43.974Z,0
2017-07-21T00:10:45.840Z,0
2017-07-21T00:11:59.988Z,0
2017-07-21T00:13:01.879Z,0
2017-07-21T00:14:03.772Z,0
2017-07-21T00:15:05.660Z,0
2017-07-21T00:16:07.467Z,0
2017-07-21T00:17:09.296Z,0
2017-07-21T00:18:11.198Z,0
2017-07-21T00:19:13.078Z,0
2017-07-21T00:20:14.945Z,0
2017-07-21T00:21:29.091Z,0
2017-07-21T00:22:30.960Z,0
2017-07-21T00:23:32.832Z,0
2017-07-21T00:24:34.720Z,0
2017-07-21T00:25:36.526Z,0
2017-07-21T00:26:38.334Z,0
2017-07-21T00:27:40.222Z,0
2017-07-21T00:28:42.094Z,0
2017-07-21T00:29:43.989Z,0
2017-07-21T00:30:58.132Z,0
2017-07-21T00:32:00.022Z,0
2017-07-21T00:33:01.898Z,0
2017-07-21T00:34:03.787Z,0
2017-07-21T00:35:05.597Z,0
2017-07-21T00:36:07.429Z,0
2017-07-21T00:37:09.323Z,0
2017-07-21T00:38:11.217Z,0
2017-07-21T00:39:13.106Z,0
2017-07-21T00:40:27.256Z,0
2017-07-21T00:41:29.146Z,0
2017-07-21T00:42:31.018Z,0
2017-07-21T00:43:32.912Z,0
2017-07-21T00:44:34.738Z,0
2017-07-21T00:45:36.545Z,0
2017-07-21T00:46:38.416Z,0
2017-07-21T00:47:40.305Z,0
2017-07-21T00:48:42.173Z,0
2017-07-21T00:49:56.312Z,0
2017-07-21T00:50:58.189Z,0
2017-07-21T00:52:00.081Z,0
2017-07-21T00:53:01.943Z,0
2017-07-21T00:54:03.751Z,0
2017-07-21T00:55:05.557Z,0
2017-07-21T00:56:07.456Z,0
2017-07-21T00:57:09.315Z,0
2017-07-21T00:58:11.180Z,0
2017-07-21T00:59:25.319Z,0
2017-07-21T01:00:27.194Z,0
2017-07-21T01:01:29.092Z,0
2017-07-21T01:02:38.249Z,0
2017-07-21T01:03:40.084Z,0
2017-07-21T01:04:41.909Z,0
2017-07-21T01:05:43.781Z,0
2017-07-21T01:06:45.650Z,0
2017-07-21T01:07:47.549Z,0
2017-07-21T01:09:01.692Z,0
2017-07-21T01:10:03.585Z,0
2017-07-21T01:11:05.478Z,0
2017-07-21T01:12:07.368Z,0
2017-07-21T01:13:09.177Z,0
2017-07-21T01:14:10.989Z,0
2017-07-21T01:15:12.877Z,0
2017-07-21T01:16:14.746Z,0
2017-07-21T01:17:16.619Z,0
2017-07-21T01:18:30.784Z,0
2017-07-21T01:19:32.676Z,0
2017-07-21T01:20:34.546Z,0
2017-07-21T01:21:36.414Z,0
2017-07-21T01:22:38.258Z,0
2017-07-21T01:23:40.058Z,0
2017-07-21T01:24:41.945Z,0
2017-07-21T01:25:43.816Z,0
2017-07-21T01:26:45.708Z,0
2017-07-21T01:27:59.854Z,0
2017-07-21T01:29:01.742Z,0
2017-07-21T01:30:03.612Z,0
2017-07-21T01:31:05.484Z,0
2017-07-21T01:32:07.293Z,0
2017-07-21T01:33:09.122Z,0
2017-07-21T01:34:10.998Z,0
2017-07-21T01:35:12.885Z,0
2017-07-21T01:36:14.757Z,0
2017-07-21T01:37:28.922Z,0
2017-07-21T01:38:30.818Z,0
2017-07-21T01:39:32.705Z,0
2017-07-21T01:40:34.578Z,0
2017-07-21T01:41:36.409Z,0
2017-07-21T01:42:38.213Z,0
2017-07-21T01:43:40.078Z,0
2017-07-21T01:44:41.955Z,0
2017-07-21T01:45:43.841Z,0
2017-07-21T01:46:57.979Z,0
2017-07-21T01:47:59.856Z,0
2017-07-21T01:49:01.717Z,0
2017-07-21T01:50:03.581Z,0
2017-07-21T01:51:05.394Z,0
2017-07-21T01:52:07.218Z,0
2017-07-21T01:53:09.091Z,0
2017-07-21T01:54:10.983Z,0
2017-07-21T01:55:12.853Z,0
2017-07-21T01:56:26.995Z,0
2017-07-21T01:57:28.886Z,0
2017-07-21T01:58:30.752Z,0
2017-07-21T01:59:32.621Z,0
2017-07-21T02:00:34.434Z,0
2017-07-21T02:01:36.261Z,0
2017-07-21T02:02:38.130Z,0
2017-07-21T02:03:40.002Z,0
2017-07-21T02:04:41.892Z,0
2017-07-21T02:05:56.033Z,0
2017-07-21T02:06:57.925Z,0
2017-07-21T02:07:59.795Z,0
2017-07-21T02:09:01.688Z,0
2017-07-21T02:10:03.516Z,0
2017-07-21T02:11:05.322Z,0
2017-07-21T02:12:07.188Z,0
2017-07-21T02:13:09.055Z,0
2017-07-21T02:14:10.926Z,0
2017-07-21T02:15:25.088Z,0
2017-07-21T02:16:26.954Z,0
2017-07-21T02:17:28.825Z,0
2017-07-21T02:18:30.694Z,0
2017-07-21T02:19:32.527Z,0
2017-07-21T02:20:34.356Z,0
2017-07-21T02:21:36.223Z,0
2017-07-21T02:22:38.113Z,0
2017-07-21T02:23:39.980Z,0
2017-07-21T02:24:54.119Z,0
2017-07-21T02:25:55.991Z,0
2017-07-21T02:26:57.888Z,0
2017-07-21T02:27:59.782Z,0
2017-07-21T02:29:01.611Z,0
2017-07-21T02:30:03.422Z,0
2017-07-21T02:31:05.309Z,0
2017-07-21T02:32:07.183Z,0
2017-07-21T02:33:09.055Z,0
2017-07-21T02:34:23.200Z,4
2017-07-21T02:35:25.091Z,4
2017-07-21T02:36:26.994Z,4
2017-07-21T02:37:28.883Z,4
2017-07-21T02:38:30.691Z,4
2017-07-21T02:39:32.524Z,4
2017-07-21T02:40:34.396Z,8
2017-07-21T02:41:36.292Z,4
2017-07-21T02:42:38.188Z,8
2017-07-21T02:43:52.330Z,8
2017-07-21T02:44:54.207Z,8
2017-07-21T02:45:56.096Z,12
2017-07-21T02:46:57.961Z,16
2017-07-21T02:47:59.778Z,16
2017-07-21T02:49:01.609Z,16
2017-07-21T02:50:03.481Z,16
2017-07-21T02:51:05.350Z,24
2017-07-21T02:52:07.223Z,24
2017-07-21T02:53:21.364Z,28
2017-07-21T02:54:23.230Z,32
2017-07-21T02:55:25.094Z,36
2017-07-21T02:56:27.003Z,40
2017-07-21T02:57:28.838Z,44
2017-07-21T02:58:30.667Z,52
2017-07-21T02:59:32.560Z,56
2017-07-21T03:00:34.435Z,64
2017-07-21T03:01:36.309Z,72
2017-07-21T03:02:50.467Z,84
2017-07-21T03:03:52.344Z,96
2017-07-21T03:04:54.240Z,104
2017-07-21T03:05:56.136Z,116
2017-07-21T03:06:57.969Z,124
2017-07-21T03:07:59.782Z,132
2017-07-21T03:09:01.671Z,140
2017-07-21T03:10:03.539Z,148
2017-07-21T03:11:05.413Z,160
2017-07-21T03:12:19.555Z,176
2017-07-21T03:13:21.430Z,192
2017-07-21T03:14:23.332Z,204
2017-07-21T03:15:25.236Z,220
2017-07-21T03:16:27.067Z,240
2017-07-21T03:17:28.876Z,264
2017-07-21T03:18:30.774Z,288
2017-07-21T03:19:32.645Z,316
2017-07-21T03:20:34.540Z,348
2017-07-21T03:21:48.689Z,384
2017-07-21T03:22:50.582Z,420
2017-07-21T03:23:52.456Z,452
2017-07-21T03:24:54.348Z,484
2017-07-21T03:25:56.165Z,516
2017-07-21T03:26:58.000Z,552
2017-07-21T03:27:59.896Z,588
2017-07-21T03:29:01.768Z,616
2017-07-21T03:30:03.635Z,652
2017-07-21T03:31:17.786Z,692
2017-07-21T03:32:19.680Z,720
2017-07-21T03:33:21.580Z,752
2017-07-21T03:34:23.484Z,788
2017-07-21T03:35:25.284Z,828
2017-07-21T03:36:27.119Z,876
2017-07-21T03:37:28.992Z,928
2017-07-21T03:38:30.891Z,976
2017-07-21T03:39:32.787Z,1020
2017-07-21T03:40:46.932Z,1088
2017-07-21T03:41:48.808Z,1152
2017-07-21T03:42:50.711Z,1224
2017-07-21T03:43:52.610Z,1272
2017-07-21T03:44:54.446Z,1316
2017-07-21T03:45:56.262Z,1352
2017-07-21T03:46:58.156Z,1388
2017-07-21T03:48:00.029Z,1424
2017-07-21T03:49:01.899Z,1464
2017-07-21T03:50:16.048Z,1548
2017-07-21T03:51:17.918Z,1624
2017-07-21T03:52:19.795Z,1700
2017-07-21T03:53:21.665Z,1780
2017-07-21T03:54:23.483Z,1860
2017-07-21T03:55:25.317Z,1944
2017-07-21T03:56:27.189Z,2048
2017-07-21T03:57:29.069Z,2164
2017-07-21T03:58:30.968Z,2296
2017-07-21T03:59:45.137Z,2440
2017-07-21T04:00:47.010Z,2540
2017-07-21T04:01:48.908Z,2624
2017-07-21T04:02:50.806Z,2712
2017-07-21T04:03:52.659Z,2804
2017-07-21T04:04:54.480Z,2892
2017-07-21T04:05:56.376Z,2984
2017-07-21T04:06:58.271Z,3088
2017-07-21T04:08:00.174Z,3176
2017-07-21T04:09:14.343Z,3232
2017-07-21T04:10:16.217Z,3256
2017-07-21T04:11:18.114Z,3272
2017-07-21T04:12:19.990Z,3296
2017-07-21T04:13:21.799Z,3328
2017-07-21T04:14:23.609Z,3368
2017-07-21T04:15:25.483Z,3412
2017-07-21T04:16:27.360Z,3476
2017-07-21T04:17:29.242Z,3548
2017-07-21T04:18:43.410Z,3644
2017-07-21T04:19:45.285Z,3704
2017-07-21T04:20:47.158Z,3780
2017-07-21T04:21:49.034Z,3884
2017-07-21T04:22:50.868Z,3976
2017-07-21T04:23:52.685Z,4064
2017-07-21T04:24:54.582Z,4156
2017-07-21T04:25:56.454Z,4252
2017-07-21T04:26:58.328Z,4328
2017-07-21T04:28:12.551Z,4432
2017-07-21T04:29:14.451Z,4480
2017-07-21T04:30:16.326Z,4528
2017-07-21T04:31:18.220Z,4588
2017-07-21T04:32:20.032Z,4640
2017-07-21T04:33:21.850Z,4684
2017-07-21T04:34:23.751Z,4716
2017-07-21T04:35:25.644Z,4796
2017-07-21T04:36:27.524Z,4964
2017-07-21T04:37:41.673Z,5124
2017-07-21T04:38:43.569Z,5216
2017-07-21T04:39:45.470Z,5256
2017-07-21T04:40:47.363Z,5304
2017-07-21T04:41:49.183Z,5364
2017-07-21T04:42:51.016Z,5420
2017-07-21T04:43:52.892Z,5504
2017-07-21T04:44:54.792Z,5636
2017-07-21T04:45:56.688Z,5748
2017-07-21T04:47:10.816Z,6016
2017-07-21T04:48:12.690Z,5780
2017-07-21T04:49:14.560Z,5932
2017-07-21T04:50:16.439Z,5896
2017-07-21T04:51:18.276Z,5768
2017-07-21T04:52:20.113Z,5784
2017-07-21T04:53:22.012Z,5788
2017-07-21T04:54:23.914Z,5936
2017-07-21T04:55:25.810Z,6140
2017-07-21T04:56:39.961Z,6368
2017-07-21T04:57:41.860Z,6588
2017-07-21T04:58:43.757Z,6816
2017-07-21T04:59:45.632Z,7008
2017-07-21T05:00:47.450Z,7172
2017-07-21T05:01:49.282Z,7136
2017-07-21T05:02:51.164Z,7124
2017-07-21T05:03:53.059Z,7140
2017-07-21T05:04:54.936Z,7288
2017-07-21T05:06:09.087Z,7360
2017-07-21T05:07:10.987Z,7492
2017-07-21T05:08:12.886Z,7684
2017-07-21T05:09:14.782Z,7912
2017-07-21T05:10:16.597Z,7968
2017-07-21T05:11:18.409Z,7972
2017-07-21T05:12:20.285Z,7952
2017-07-21T05:13:22.159Z,7936
2017-07-21T05:14:24.058Z,7960
2017-07-21T05:15:38.203Z,8148
2017-07-21T05:16:40.076Z,8484
2017-07-21T05:17:41.955Z,8444
2017-07-21T05:18:43.852Z,8400
2017-07-21T05:19:45.663Z,8380
2017-07-21T05:20:47.479Z,9380
2017-07-21T05:21:49.352Z,8888
2017-07-21T05:22:51.224Z,8688
2017-07-21T05:23:53.105Z,8572
2017-07-21T05:25:07.247Z,8492
2017-07-21T05:26:09.123Z,8476
2017-07-21T05:27:11.024Z,8340
2017-07-21T05:28:12.917Z,8140
2017-07-21T05:29:14.734Z,8108
2017-07-21T05:30:16.568Z,8316
2017-07-21T05:31:18.447Z,8600
2017-07-21T05:32:20.326Z,8804
2017-07-21T05:33:22.225Z,9000
2017-07-21T05:34:36.396Z,9208
2017-07-21T05:35:38.296Z,9156
2017-07-21T05:36:40.173Z,9064
2017-07-21T05:37:42.074Z,9044
2017-07-21T05:38:43.893Z,9052
2017-07-21T05:39:45.732Z,9136
2017-07-21T05:40:47.629Z,9256
2017-07-21T05:41:49.527Z,9720
2017-07-21T05:42:51.428Z,10164
2017-07-21T05:44:05.604Z,10688
2017-07-21T05:45:07.503Z,10820
2017-07-21T05:46:09.408Z,10672
2017-07-21T05:47:11.303Z,10268
2017-07-21T05:48:13.121Z,10276
2017-07-21T05:49:14.938Z,10420
2017-07-21T05:50:16.835Z,10100
2017-07-21T05:51:18.714Z,9924
2017-07-21T05:52:20.592Z,9556
2017-07-21T05:53:34.761Z,9388
2017-07-21T05:54:36.658Z,9232
2017-07-21T05:55:38.538Z,9200
2017-07-21T05:56:40.410Z,9320
2017-07-21T05:57:42.229Z,9544
2017-07-21T05:58:44.159Z,9732
2017-07-21T05:59:46.028Z,9944
2017-07-21T06:00:47.905Z,10096
2017-07-21T06:01:49.781Z,10236
2017-07-21T06:03:03.932Z,10372
2017-07-21T06:04:05.801Z,10408
2017-07-21T06:05:07.679Z,10284
2017-07-21T06:06:09.547Z,9960
2017-07-21T06:07:11.368Z,9656
2017-07-21T06:08:13.182Z,9508
2017-07-21T06:09:15.079Z,9440
2017-07-21T06:10:16.953Z,9544
2017-07-21T06:11:18.833Z,9548
2017-07-21T06:12:32.999Z,9420
2017-07-21T06:13:34.873Z,9468
2017-07-21T06:14:36.747Z,9616
2017-07-21T06:15:38.621Z,9872
2017-07-21T06:16:40.441Z,10168
2017-07-21T06:17:42.280Z,10520
2017-07-21T06:18:44.151Z,10536
2017-07-21T06:19:46.032Z,10368
2017-07-21T06:20:47.934Z,10152
2017-07-21T06:22:02.083Z,9908
2017-07-21T06:23:03.950Z,9652
2017-07-21T06:24:05.824Z,9464
2017-07-21T06:25:07.695Z,9344
2017-07-21T06:26:09.515Z,9180
2017-07-21T06:27:11.353Z,9136
2017-07-21T06:28:13.252Z,9036
2017-07-21T06:29:15.106Z,9084
2017-07-21T06:30:16.995Z,9120
2017-07-21T06:31:31.138Z,9084
2017-07-21T06:32:33.010Z,9000
2017-07-21T06:33:34.885Z,8916
2017-07-21T06:34:36.779Z,8868
2017-07-21T06:35:38.597Z,8884
2017-07-21T06:36:40.411Z,8928
2017-07-21T06:37:42.310Z,8960
2017-07-21T06:38:44.185Z,8900
2017-07-21T06:39:46.082Z,8800
2017-07-21T06:41:00.232Z,8700
2017-07-21T06:42:02.126Z,8720
2017-07-21T06:43:04.005Z,8760
2017-07-21T06:44:05.879Z,8800
2017-07-21T06:45:07.723Z,8976
2017-07-21T06:46:09.562Z,9164
2017-07-21T06:47:11.461Z,9308
2017-07-21T06:48:13.356Z,9428
2017-07-21T06:49:15.230Z,9720
2017-07-21T06:50:29.384Z,10036
2017-07-21T06:51:31.284Z,10208
2017-07-21T06:52:33.186Z,10176
2017-07-21T06:53:35.093Z,10136
2017-07-21T06:54:36.906Z,10328
2017-07-21T06:55:38.719Z,10384
2017-07-21T06:56:40.596Z,10452
2017-07-21T06:57:42.475Z,10680
2017-07-21T06:58:44.379Z,10604
2017-07-21T06:59:58.551Z,10452
2017-07-21T07:01:00.450Z,10228
2017-07-21T07:02:02.329Z,10212
2017-07-21T07:03:04.225Z,10252
2017-07-21T07:04:06.046Z,10076
2017-07-21T07:05:07.859Z,10328
2017-07-21T07:06:09.740Z,10892
2017-07-21T07:07:11.641Z,11100
2017-07-21T07:08:13.539Z,10752
2017-07-21T07:09:27.692Z,10276
2017-07-21T07:10:29.595Z,10300
2017-07-21T07:11:31.496Z,10644
2017-07-21T07:12:33.371Z,11784
2017-07-21T07:13:35.191Z,12952
2017-07-21T07:14:37.034Z,13228
2017-07-21T07:15:38.908Z,13004
2017-07-21T07:16:40.785Z,12296
2017-07-21T07:17:42.667Z,11972
2017-07-21T07:18:56.834Z,12456
2017-07-21T07:19:58.711Z,12568
2017-07-21T07:21:00.589Z,12764
2017-07-21T07:22:02.469Z,13336
2017-07-21T07:23:04.314Z,13864
2017-07-21T07:24:06.151Z,13952
2017-07-21T07:25:08.026Z,13852
2017-07-21T07:26:09.925Z,13524
2017-07-21T07:27:11.825Z,13392
2017-07-21T07:28:25.973Z,13656
2017-07-21T07:29:27.849Z,13936
2017-07-21T07:30:29.732Z,14124
2017-07-21T07:31:31.626Z,14580
2017-07-21T07:32:33.447Z,14972
2017-07-21T07:33:35.257Z,15444
2017-07-21T07:34:37.139Z,15752
2017-07-21T07:35:39.019Z,15624
2017-07-21T07:36:40.898Z,15564
2017-07-21T07:37:55.076Z,15328
2017-07-21T07:38:56.970Z,15572
2017-07-21T07:39:58.856Z,16288
2017-07-21T07:41:00.757Z,17088
2017-07-21T07:42:02.573Z,17920
2017-07-21T07:43:04.388Z,18400
2017-07-21T07:44:06.266Z,18400
2017-07-21T07:45:08.145Z,18400
2017-07-21T07:46:10.022Z,18112
2017-07-21T07:47:24.174Z,17376
2017-07-21T07:48:26.077Z,16896
2017-07-21T07:49:27.976Z,16800
2017-07-21T07:50:29.864Z,16928
2017-07-21T07:51:31.768Z,16992
2017-07-21T07:52:33.586Z,16864
2017-07-21T07:53:35.487Z,16672
2017-07-21T07:54:37.377Z,16512
2017-07-21T07:55:39.270Z,15824
2017-07-21T07:56:53.444Z,15088
2017-07-21T07:57:55.322Z,14804
2017-07-21T07:58:57.223Z,14520
2017-07-21T07:59:59.105Z,14420
2017-07-21T08:01:00.924Z,14232
2017-07-21T08:02:02.762Z,13888
2017-07-21T08:03:04.638Z,13624
2017-07-21T08:04:06.521Z,13528
2017-07-21T08:05:08.426Z,13384
2017-07-21T08:06:22.602Z,13084
2017-07-21T08:07:24.509Z,12772
2017-07-21T08:08:26.407Z,12548
2017-07-21T08:09:28.288Z,12448
2017-07-21T08:10:30.106Z,12476
2017-07-21T08:11:31.923Z,12424
2017-07-21T08:12:33.800Z,12484
2017-07-21T08:13:35.684Z,12676
2017-07-21T08:14:37.585Z,12840
2017-07-21T08:15:51.741Z,12704
2017-07-21T08:16:53.645Z,12572
2017-07-21T08:17:55.547Z,12348
2017-07-21T08:18:57.452Z,12044
2017-07-21T08:19:59.291Z,12032
2017-07-21T08:21:01.112Z,12248
2017-07-21T08:22:03.010Z,12296
2017-07-21T08:23:04.885Z,12496
2017-07-21T08:24:06.728Z,12916
2017-07-21T08:25:20.879Z,13384
2017-07-21T08:26:22.758Z,13364
2017-07-21T08:27:24.660Z,13372
2017-07-21T08:28:26.541Z,13880
2017-07-21T08:29:28.359Z,13840
2017-07-21T08:30:30.172Z,13772
2017-07-21T08:31:32.049Z,13272
2017-07-21T08:32:33.930Z,12680
2017-07-21T08:33:35.770Z,12136
2017-07-21T08:34:49.945Z,11720
2017-07-21T08:35:51.845Z,11640
2017-07-21T08:36:53.746Z,11556
2017-07-21T08:37:55.619Z,11764
2017-07-21T08:38:57.442Z,12080
2017-07-21T08:39:59.284Z,12352
2017-07-21T08:41:01.192Z,12692
2017-07-21T08:42:03.091Z,13212
2017-07-21T08:43:04.973Z,13564
2017-07-21T08:44:19.152Z,13576
2017-07-21T08:45:21.055Z,13728
2017-07-21T08:46:22.956Z,14072
2017-07-21T08:47:24.837Z,14344
2017-07-21T08:48:26.681Z,14672
2017-07-21T08:49:28.501Z,15220
2017-07-21T08:50:30.401Z,15700
2017-07-21T08:51:32.286Z,16224
2017-07-21T08:52:34.169Z,16384
2017-07-21T08:53:48.346Z,16928
2017-07-21T08:54:50.247Z,16960
2017-07-21T08:55:52.132Z,17344
2017-07-21T08:56:54.038Z,16448
2017-07-21T08:57:55.882Z,15840
2017-07-21T08:58:57.704Z,15412
2017-07-21T08:59:59.605Z,15112
2017-07-21T09:01:01.507Z,15096
2017-07-21T09:02:03.412Z,15392
2017-07-21T09:03:17.568Z,15712
2017-07-21T09:04:19.451Z,14652
2017-07-21T09:05:21.327Z,13652
2017-07-21T09:06:23.233Z,13028
2017-07-21T09:07:25.079Z,12220
2017-07-21T09:08:26.891Z,11164
2017-07-21T09:09:28.770Z,10152
2017-07-21T09:10:30.649Z,9840
2017-07-21T09:11:32.534Z,10048
2017-07-21T09:12:46.711Z,10900
2017-07-21T09:13:48.609Z,12512
2017-07-21T09:14:50.496Z,14852
2017-07-21T09:15:52.374Z,14980
2017-07-21T09:16:54.193Z,14020
2017-07-21T09:17:56.012Z,13728
2017-07-21T09:18:57.915Z,12940
2017-07-21T09:19:59.817Z,12496
2017-07-21T09:21:01.694Z,11748
2017-07-21T09:22:15.845Z,11864
2017-07-21T09:23:17.729Z,12716
2017-07-21T09:24:19.598Z,13368
2017-07-21T09:25:21.476Z,13440
2017-07-21T09:26:23.295Z,14020
2017-07-21T09:27:25.096Z,13932
2017-07-21T09:28:27.019Z,13436
2017-07-21T09:29:28.902Z,13332
2017-07-21T09:30:30.785Z,13332
2017-07-21T09:31:44.959Z,13844
2017-07-21T09:32:46.863Z,14092
2017-07-21T09:33:48.745Z,13808
2017-07-21T09:34:50.624Z,13512
2017-07-21T09:35:52.471Z,13296
2017-07-21T09:36:54.284Z,13456
2017-07-21T09:37:56.167Z,12992
2017-07-21T09:38:58.063Z,13100
2017-07-21T09:39:59.943Z,13440
2017-07-21T09:41:14.113Z,13064
2017-07-21T09:42:15.993Z,12704
2017-07-21T09:43:17.870Z,12736
2017-07-21T09:44:19.748Z,12784
2017-07-21T09:45:21.571Z,13160
2017-07-21T09:46:23.417Z,13512
2017-07-21T09:47:25.321Z,14368
2017-07-21T09:48:27.190Z,15056
2017-07-21T09:49:29.068Z,15536
2017-07-21T09:50:43.221Z,15052
2017-07-21T09:51:45.098Z,14212
2017-07-21T09:52:47.014Z,13148
2017-07-21T09:53:48.922Z,13548
2017-07-21T09:54:50.764Z,14368
2017-07-21T09:55:52.579Z,15100
2017-07-21T09:56:54.483Z,15784
2017-07-21T09:57:56.366Z,16128
2017-07-21T09:58:58.248Z,16160
2017-07-21T10:00:12.428Z,15192
2017-07-21T10:01:14.307Z,15456
2017-07-21T10:02:16.208Z,14984
2017-07-21T10:03:18.089Z,15520
2017-07-21T10:04:19.933Z,16384
2017-07-21T10:05:21.754Z,17120
2017-07-21T10:06:23.656Z,18176
2017-07-21T10:07:25.537Z,18496
2017-07-21T10:08:27.412Z,18016
2017-07-21T10:09:41.562Z,17248
2017-07-21T10:10:43.442Z,17216
2017-07-21T10:11:45.321Z,17312
2017-07-21T10:12:47.199Z,17184
2017-07-21T10:13:49.049Z,16928
2017-07-21T10:14:50.888Z,16864
2017-07-21T10:15:52.769Z,17408
2017-07-21T10:16:54.674Z,17472
2017-07-21T10:17:56.575Z,17792
2017-07-21T10:19:10.730Z,17632
2017-07-21T10:20:12.612Z,17248
2017-07-21T10:21:14.515Z,16416
2017-07-21T10:22:16.417Z,15540
2017-07-21T10:23:18.235Z,14632
2017-07-21T10:24:20.059Z,13620
2017-07-21T10:25:21.962Z,12744
2017-07-21T10:26:23.845Z,11880
2017-07-21T10:27:25.742Z,11284
2017-07-21T10:28:39.896Z,10592
2017-07-21T10:29:41.778Z,10192
2017-07-21T10:30:43.678Z,9492
2017-07-21T10:31:45.563Z,8908
2017-07-21T10:32:47.404Z,8592
2017-07-21T10:33:49.224Z,8516
2017-07-21T10:34:51.129Z,8576
2017-07-21T10:35:53.032Z,8552
2017-07-21T10:36:54.930Z,8656
2017-07-21T10:38:09.083Z,9056
2017-07-21T10:39:10.958Z,9484
2017-07-21T10:40:12.838Z,10132
2017-07-21T10:41:14.716Z,10812
2017-07-21T10:42:16.544Z,11444
2017-07-21T10:43:18.378Z,12712
2017-07-21T10:44:20.256Z,13620
2017-07-21T10:45:22.139Z,13944
2017-07-21T10:46:24.020Z,13672
2017-07-21T10:47:38.168Z,13180
2017-07-21T10:48:40.067Z,12504
2017-07-21T10:49:41.949Z,12064
2017-07-21T10:50:43.847Z,12212
2017-07-21T10:51:45.670Z,12700
2017-07-21T10:52:47.483Z,13872
2017-07-21T10:53:49.365Z,14884
2017-07-21T10:54:51.245Z,15808
2017-07-21T10:55:53.166Z,15968
2017-07-21T10:57:07.343Z,15212
2017-07-21T10:58:09.244Z,15060
2017-07-21T10:59:11.124Z,14296
2017-07-21T11:00:13.007Z,14040
2017-07-21T11:01:14.846Z,14816
2017-07-21T11:02:16.670Z,14856
2017-07-21T11:03:18.576Z,14160
2017-07-21T11:04:20.447Z,13332
2017-07-21T11:05:22.330Z,12932
2017-07-21T11:06:36.512Z,12680
2017-07-21T11:07:38.417Z,13232
2017-07-21T11:08:40.319Z,13088
2017-07-21T11:09:42.200Z,12852
2017-07-21T11:10:44.067Z,12292
2017-07-21T11:11:45.856Z,11632
2017-07-21T11:12:47.740Z,11008
2017-07-21T11:13:49.641Z,10572
2017-07-21T11:14:51.522Z,10540
2017-07-21T11:16:05.674Z,10472
2017-07-21T11:17:07.554Z,10716
2017-07-21T11:18:09.459Z,10896
2017-07-21T11:19:11.358Z,11112
2017-07-21T11:20:13.183Z,11204
2017-07-21T11:21:15.003Z,11440
2017-07-21T11:22:16.881Z,11416
2017-07-21T11:23:18.764Z,10816
2017-07-21T11:24:20.662Z,10400
2017-07-21T11:25:34.811Z,9984
2017-07-21T11:26:36.689Z,9632
2017-07-21T11:27:38.591Z,9564
2017-07-21T11:28:40.474Z,9376
2017-07-21T11:29:42.310Z,9624
2017-07-21T11:30:44.132Z,9604
2017-07-21T11:31:46.005Z,8992
2017-07-21T11:32:47.885Z,8936
2017-07-21T11:33:49.809Z,8520
2017-07-21T11:35:03.959Z,8572
2017-07-21T11:36:05.836Z,8964
2017-07-21T11:37:07.734Z,9496
2017-07-21T11:38:09.618Z,10180
2017-07-21T11:39:11.464Z,10756
2017-07-21T11:40:13.302Z,11416
2017-07-21T11:41:15.186Z,11948
2017-07-21T11:42:17.087Z,12052
2017-07-21T11:43:18.967Z,11832
2017-07-21T11:44:33.141Z,11252
2017-07-21T11:45:35.018Z,11412
2017-07-21T11:46:36.897Z,11100
2017-07-21T11:47:38.798Z,11040
2017-07-21T11:48:40.615Z,10572
2017-07-21T11:49:42.437Z,10420
2017-07-21T11:50:44.340Z,10440
2017-07-21T11:51:46.246Z,10556
2017-07-21T11:52:48.144Z,10996
2017-07-21T11:54:02.299Z,11264
2017-07-21T11:55:04.204Z,11340
2017-07-21T11:56:06.108Z,11672
2017-07-21T11:57:08.006Z,11548
2017-07-21T11:58:09.825Z,11088
2017-07-21T11:59:11.646Z,10472
2017-07-21T12:00:13.551Z,10252
2017-07-21T12:01:15.447Z,9988
2017-07-21T12:02:17.327Z,10020
2017-07-21T12:03:31.478Z,10184
2017-07-21T12:04:33.360Z,10500
2017-07-21T12:05:35.267Z,10844
2017-07-21T12:06:37.172Z,11060
2017-07-21T12:07:39.012Z,11176
2017-07-21T12:08:40.836Z,11236
2017-07-21T12:09:42.736Z,11424
2017-07-21T12:10:44.636Z,11224
2017-07-21T12:11:46.517Z,10912
2017-07-21T12:13:00.700Z,11124
2017-07-21T12:14:02.601Z,11240
2017-07-21T12:15:04.481Z,11204
2017-07-21T12:16:06.361Z,11380
2017-07-21T12:17:08.201Z,11584
2017-07-21T12:18:10.023Z,11668
2017-07-21T12:19:11.907Z,11880
2017-07-21T12:20:13.776Z,11744
2017-07-21T12:21:15.652Z,11840
2017-07-21T12:22:29.810Z,11968
2017-07-21T12:23:31.689Z,11912
2017-07-21T12:24:33.616Z,11552
2017-07-21T12:25:35.535Z,11724
2017-07-21T12:26:37.359Z,11992
2017-07-21T12:27:39.205Z,12172
2017-07-21T12:28:41.101Z,12296
2017-07-21T12:29:42.982Z,12300
2017-07-21T12:30:44.857Z,12720
2017-07-21T12:31:59.026Z,12860
2017-07-21T12:33:00.906Z,12736
2017-07-21T12:34:02.785Z,12868
2017-07-21T12:35:04.662Z,12664
2017-07-21T12:36:06.506Z,12696
2017-07-21T12:37:08.322Z,13096
2017-07-21T12:38:10.200Z,13124
2017-07-21T12:39:12.083Z,13088
2017-07-21T12:40:13.992Z,12520
2017-07-21T12:41:28.163Z,11652
2017-07-21T12:42:30.038Z,11180
2017-07-21T12:43:31.917Z,10952
2017-07-21T12:44:33.796Z,10940
2017-07-21T12:45:35.619Z,10720
2017-07-21T12:46:37.461Z,10332
2017-07-21T12:47:39.341Z,9968
2017-07-21T12:48:41.239Z,9664
2017-07-21T12:49:43.114Z,9308
2017-07-21T12:50:57.269Z,9116
2017-07-21T12:51:59.144Z,9144
2017-07-21T12:53:01.024Z,9388
2017-07-21T12:54:02.897Z,9872
2017-07-21T12:55:04.721Z,10124
2017-07-21T12:56:06.563Z,10220
2017-07-21T12:57:08.445Z,10220
2017-07-21T12:58:10.346Z,10464
2017-07-21T12:59:12.223Z,10696
2017-07-21T13:00:26.398Z,11020
2017-07-21T13:01:28.281Z,11344
2017-07-21T13:02:30.180Z,11828
2017-07-21T13:03:32.056Z,12028
2017-07-21T13:04:33.875Z,12044
2017-07-21T13:05:35.696Z,12168
2017-07-21T13:06:37.599Z,12808
2017-07-21T13:07:39.477Z,13432
2017-07-21T13:08:41.355Z,14392
2017-07-21T13:09:55.560Z,15460
2017-07-21T13:10:57.466Z,15508
2017-07-21T13:11:59.367Z,14984
2017-07-21T13:13:01.249Z,14124
2017-07-21T13:14:03.090Z,13128
2017-07-21T13:15:04.913Z,12700
2017-07-21T13:16:06.917Z,12852
2017-07-21T13:17:08.821Z,12496
2017-07-21T13:18:10.726Z,11444
2017-07-21T13:19:24.902Z,9992
2017-07-21T13:20:26.802Z,9200
2017-07-21T13:21:28.688Z,8696
2017-07-21T13:22:30.589Z,8460
2017-07-21T13:23:32.437Z,8384
2017-07-21T13:24:34.281Z,8456
2017-07-21T13:25:36.183Z,8524
2017-07-21T13:26:38.090Z,8616
2017-07-21T13:27:39.989Z,8812
2017-07-21T13:28:54.145Z,9008
2017-07-21T13:29:56.046Z,9556
2017-07-21T13:30:57.928Z,10072
2017-07-21T13:31:59.812Z,10208
2017-07-21T13:33:01.627Z,10200
2017-07-21T13:34:03.447Z,10104
2017-07-21T13:35:05.330Z,9900
2017-07-21T13:36:07.208Z,9692
2017-07-21T13:37:09.083Z,9680
2017-07-21T13:38:23.264Z,9808
2017-07-21T13:39:25.164Z,9968
2017-07-21T13:40:27.043Z,9992
2017-07-21T13:41:28.921Z,10308
2017-07-21T13:42:30.743Z,10584
2017-07-21T13:43:32.587Z,10892
2017-07-21T13:44:34.467Z,10828
2017-07-21T13:45:36.376Z,10628
2017-07-21T13:46:38.277Z,10540
2017-07-21T13:47:52.450Z,10560
2017-07-21T13:48:54.324Z,10616
2017-07-21T13:49:56.201Z,10608
2017-07-21T13:50:58.086Z,10804
2017-07-21T13:51:59.927Z,11004
2017-07-21T13:53:01.750Z,11292
2017-07-21T13:54:03.651Z,11580
2017-07-21T13:55:05.532Z,11784
2017-07-21T13:56:07.410Z,11904
2017-07-21T13:57:21.562Z,12452
2017-07-21T13:58:23.444Z,12576
2017-07-21T13:59:25.356Z,13064
2017-07-21T14:00:27.255Z,13456
2017-07-21T14:01:29.082Z,13536
2017-07-21T14:02:30.933Z,13664
2017-07-21T14:03:32.837Z,13560
2017-07-21T14:04:34.736Z,13496
2017-07-21T14:05:36.618Z,13532
2017-07-21T14:06:50.772Z,13388